Portada
METAR-TAF:

METAR-TAF

Aeroports :

San José del Cabo, Mèxic

latitud: 23-09N, longitud: 109-42W, altitud: 109 m

Observació

L'informe es va fer fa 37 minuts, a les 13:50 UTC
Vent 6 kt del Oest/Sud-Oest
Temperatura 19°C
Humitat 46%
Pressió 1020 hPa
Visibilitat: 19.3 km
Núvols disperses a una alçada de 16000 ft

METAR: MMSD 231350Z 24006KT 12SM SCT160 19/07 A3011 RMK 8/030 CI

Hora: 07:27 (14:27 UTC)

Pronòstic

L'informe es va fer fa 10 hores i 4 minuts, a les 04:23 UTC
Pronòstic vàlid del 23 a les 06 UTC al 24 a les 06 UTC
Vent kt del Nord
Visibilitat: 10 km
Núvols disperses a una alçada de 22000 ft
A partir de les 23 a les 1800 UTC
Vent 10 kt del Sud-Est
Visibilitat: 10 km
Cel ennuvolat a una alçada de 22000 ft
A partir de les 24 a les 0300 UTC
Vent 5 kt del Sud-Est
Visibilitat: 10 km
Cel ennuvolat a una alçada de 22000 ft

TAF: MMSD 230423Z 2306/2406 00000KT P6SM SCT220 FM231800 14010KT P6SM BKN220 FM240300 13005KT P6SM BKN220

Observacions i pronòstics meteorològics de més de 4000 aeroports (METAR i TAF).

Les estacions disponibles són els punts grocs i vermells al mapa.

Posi el ratolí al punt desitjat per veure el nom de l'estació.

Feu clic per veure les observacions i els pronòstics meteorològics.

Per canviar el mapa: feu clic els botons verds amb una creu de color negre per apropar; al botó verd amb un guió per allunyar la imatge; o en les fletxes verdes per a mapes adjacents.


METAR-TAF: